Observations for EXETER AIRPORT, United Kingdom (EGTE)

EGTE 250220Z 30010KT 9999 -SHRA SCT015 SCT030 02/02 Q1015   
EGTE 250150Z 36005KT 9999 FEW008 SCT018 02/02 Q1014 
EGTE 250120Z VRB02KT 9999 FEW018 02/01 Q1014
EGTE 250050Z 14001KT 9999 FEW018 SCT045 02/01 Q1014 
EGTE 250020Z 09002KT 9999 SCT048 01/01 Q1014
EGTE 242350Z 07004KT 020V080 9999 FEW012 SCT020 02/01 Q1014 
EGTE 242320Z 25004KT 190V290 9999 SCT020 01/00 Q1014
EGTE 242250Z 32005KT 9999 FEW040 M00/M01 Q1014  
EGTE 242220Z 13003KT 9999 FEW040 M00/M01 Q1013  
EGTE 242150Z 06003KT 9999 0000 FEW040 M01/M01 Q1013 
EGTE 242120Z 35004KT CAVOK M00/M01 Q1013
EGTE 242050Z VRB03KT CAVOK 00/M00 Q1013 
EGTE 242020Z VRB03KT CAVOK 01/01 Q1013  
EGTE 241950Z 00000KT CAVOK 01/01 Q1013  
EGTE 241920Z 00000KT CAVOK 01/00 Q1013  
EGTE 241850Z 08003KT CAVOK 02/00 Q1013  
EGTE 241820Z 08003KT CAVOK 03/01 Q1013  
EGTE 241750Z 34003KT CAVOK 04/02 Q1013  
EGTE 241720Z 34004KT 300V060 CAVOK 05/02 Q1013  
EGTE 241650Z 28003KT CAVOK 05/02 Q1012  
EGTE 241620Z 31004KT 9999 FEW030 06/02 Q1012
EGTE 241550Z 31004KT 9999 FEW030 07/03 Q1012
EGTE 241520Z 31005KT 9999 FEW030 08/03 Q1012
EGTE 241450Z 31005KT 9999 FEW030 09/04 Q1012
EGTE 241420Z 31005KT 260V340 9999 FEW030 09/04 Q1012
EGTE 241350Z VRB01KT 9999 FEW025 08/03 Q1012
EGTE 241320Z VRB02KT 9999 FEW025 09/04 Q1012
EGTE 241250Z 33004KT 300V020 9999 FEW025 09/05 Q1012
EGTE 241220Z VRB02KT 9999 FEW020 08/05 Q1012
EGTE 241150Z VRB02KT 9999 FEW020 07/05 Q1012
EGTE 241120Z VRB02KT 9999 FEW020 05/04 Q1012
EGTE 241050Z VRB02KT 9999 FEW020 05/04 Q1012
EGTE 241020Z VRB01KT 9999 FEW020 05/05 Q1012
EGTE 240950Z 34004KT 9999 FEW020 05/04 Q1011
EGTE 240920Z VRB01KT 9999 FEW020 04/04 Q1011
EGTE 240850Z VRB01KT 9999 FEW020 04/04 Q1011
EGTE 240820Z 32002KT 9999 FEW020 04/03 Q1010
EGTE 240750Z VRB03KT 9999 FEW020 05/04 Q1010
EGTE 240720Z 36004KT 9999 FEW020 05/04 Q1009
EGTE 240650Z 29004KT 250V320 9999 FEW020 05/04 Q1009
EGTE 240620Z 16004KT 9999 FEW030 05/04 Q1009
EGTE 240550Z 35002KT 9999 -SHRA FEW018 SCT030 05/04 Q1009